Goodfellow AFB, Texas
Current Conditions -  °F | °C
As of 1:51 AM on Sunday 26 Oct 2014 (Local Time) from KSJT Reporting Station
Clear Clear  
Wind Chill: 66°   Ceiling: Unl
Heat Index: 66°   Visibility: 10mi
Dew Point: 52°   Wind: 9mph
Humidity: 60%   Direction: 190°S
Pressure: 30.07"   Gusts: NA
Location:  31.45°N, 100.42°W
Report Text: KSJT 260651Z AUTO 19008KT 10SM CLR 19/11 A3007 RMK AO2 SLP159 T01890111
Loading
Personal Weather Stations






























Interactive Weather Map
Tropical Storm Tracking
New forecast layout! Learn more

10-Day Weather Forecast

Advertisements
Track Severe Weather on mobile